Logan - 24 Hour Table
Date & TimeSolar
Radiation
(W/m²)
Wind
Speed
(mph)
Wind
Direction
(degrees)
Air
Temperature
(°F)
Relative
Humidity
(%)
Precipitation
(inches)
Barometric
Pressure
(inHg)
2018/04/19 16:00 488 6.3 333 63.7 17 0.00 29.78
2018/04/19 15:00 370 3.1 298 62.5 21 0.00 29.79
2018/04/19 14:00 668 4.6 311 63.0 18 0.00 29.82
2018/04/19 13:00 631 4.3 338 60.1 27 0.00 29.82
2018/04/19 12:00 613 3.4 313 57.0 27 0.00 29.86
2018/04/19 11:00 489 3.3 337 53.2 32 0.00 29.88
2018/04/19 10:00 365 2.0 311 48.8 37 0.00 29.90
2018/04/19 09:00 226 0.5 337 44.2 54 0.00 29.90
2018/04/19 08:00 117 0.7 284 39.4 75 0.00 29.92
2018/04/19 07:00 39 1.0 295 37.5 83 0.00 29.92
2018/04/19 06:00 1 0.8 287 37.8 81 0.00 29.92
2018/04/19 05:00 0 0.8 5 38.2 79 0.00 29.93
2018/04/19 04:00 0 0.8 31 40.9 75 0.00 29.94
2018/04/19 03:00 0 1.1 16 40.3 65 0.00 29.94
2018/04/19 02:00 0 1.3 5 40.2 69 0.00 29.95
2018/04/19 01:00 0 0.6 15 40.2 71 0.00 29.96
2018/04/19 00:00 0 0.9 47 40.4 70 0.00 29.97
2018/04/18 23:00 0 2.4 181 41.3 68 0.00 29.99
2018/04/18 22:00 0 1.0 187 44.8 58 0.00 30.00
2018/04/18 21:00 0 0.4 69 47.7 40 0.00 30.01
2018/04/18 20:00 1 1.2 5 47.6 37 0.00 30.02
2018/04/18 19:00 32 3.2 300 49.4 53 0.00 30.02
2018/04/18 18:00 138 4.2 309 53.0 40 0.00 30.04
2018/04/18 17:00 404 2.3 305 55.4 26 0.00 30.05